Time;durP1;ratioP1;P1;durP2;ratioP2;P2;SDS_P1;SDS_P2;PMS_P1;PMS_P2;Temp;Humidity;BMP_temperature;BMP_pressure;BME280_temperature;BME280_humidity;BME280_pressure;Samples;Min_cycle;Max_cycle;Signal;HPM_P1;HPM_P2
2021/01/27 00:00:30;;;;;;;15.05;8.25;;;1.90;99.90;;;2.47;82.60;100738.72;5021740;28;20734;-83
2021/01/27 00:02:59;;;;;;;15.02;8.18;;;1.90;99.90;;;2.55;82.40;100738.03;5048421;28;20072;-83
2021/01/27 00:05:37;;;;;;;14.55;8.52;;;1.90;99.90;;;2.50;82.89;100735.38;5056370;28;20404;-83
2021/01/27 00:08:05;;;;;;;12.65;8.45;;;1.80;99.90;;;2.46;81.93;100737.09;5040004;28;20533;-82
2021/01/27 00:10:35;;;;;;;13.02;7.72;;;1.90;99.90;;;2.57;81.92;100732.19;5032842;28;20036;-82
2021/01/27 00:13:04;;;;;;;13.00;7.20;;;1.90;99.90;;;2.64;81.28;100732.63;5053107;28;20013;-83
2021/01/27 00:15:36;;;;;;;17.33;7.88;;;1.90;99.90;;;2.57;81.24;100724.75;5042504;28;20086;-82
2021/01/27 00:18:07;;;;;;;13.75;7.85;;;2.00;99.90;;;2.65;81.28;100721.31;5043489;28;20116;-83
2021/01/27 00:20:33;;;;;;;13.23;7.70;;;2.00;99.90;;;2.71;80.74;100722.03;5040104;28;20025;-83
2021/01/27 00:23:00;;;;;;;11.20;7.50;;;2.10;99.90;;;2.74;80.62;100712.31;5039970;28;20021;-83
2021/01/27 00:25:31;;;;;;;13.23;8.13;;;2.10;99.90;;;2.70;81.00;100703.03;5056689;28;20025;-85
2021/01/27 00:27:59;;;;;;;12.23;7.03;;;2.00;99.90;;;2.71;80.68;100697.22;5057116;28;20041;-83
2021/01/27 00:30:39;;;;;;;12.10;7.22;;;2.00;99.90;;;2.69;80.13;100695.88;5039872;28;20025;-84
2021/01/27 00:33:07;;;;;;;12.75;7.30;;;2.10;99.90;;;2.76;80.39;100696.31;5040865;28;20036;-84
2021/01/27 00:35:39;;;;;;;13.73;7.57;;;2.10;99.90;;;2.67;80.60;100690.66;5060260;28;20037;-85
2021/01/27 00:38:20;;;;;;;12.73;7.55;;;2.10;99.90;;;2.62;80.36;100676.97;5057598;28;20033;-84
2021/01/27 00:40:47;;;;;;;15.20;7.28;;;2.00;99.90;;;2.61;80.42;100680.84;5044175;28;20033;-82
2021/01/27 00:43:14;;;;;;;12.93;7.65;;;2.00;99.90;;;2.63;80.54;100675.88;5038879;28;20028;-82
2021/01/27 00:45:40;;;;;;;9.60;6.60;;;2.00;99.90;;;2.73;79.88;100667.38;5038653;28;20056;-83
2021/01/27 00:48:08;;;;;;;11.65;6.53;;;2.00;99.90;;;2.80;79.51;100658.69;5038429;28;20130;-84
2021/01/27 00:50:36;;;;;;;17.00;6.80;;;2.00;99.90;;;2.77;79.74;100660.13;5056641;28;20035;-83
2021/01/27 00:53:04;;;;;;;11.45;6.55;;;2.10;99.90;;;2.75;79.36;100667.91;5038551;28;20086;-84
2021/01/27 00:55:32;;;;;;;10.02;6.75;;;2.10;99.90;;;2.79;79.31;100660.66;5057060;28;20025;-83
2021/01/27 00:58:00;;;;;;;18.08;7.13;;;2.10;99.90;;;2.74;79.66;100673.72;5039305;28;20029;-83
2021/01/27 01:00:32;;;;;;;11.80;6.88;;;2.10;99.90;;;2.82;78.51;100667.50;5039439;28;20395;-83
2021/01/27 01:02:58;;;;;;;11.93;6.13;;;2.10;99.90;;;2.84;78.08;100666.06;5039817;28;20025;-84
2021/01/27 01:05:34;;;;;;;14.27;6.90;;;2.10;99.90;;;2.88;78.05;100674.53;5056282;28;20029;-83
2021/01/27 01:08:00;;;;;;;7.80;5.95;;;2.10;99.90;;;2.77;78.64;100678.63;5055635;28;20123;-82
2021/01/27 01:10:36;;;;;;;9.20;6.00;;;2.10;99.90;;;2.73;78.39;100672.88;5056056;28;20092;-84
2021/01/27 01:13:06;;;;;;;11.98;6.47;;;2.10;99.90;;;2.85;78.31;100659.44;5055761;28;20488;-84
2021/01/27 01:15:32;;;;;;;11.80;6.22;;;2.10;99.90;;;2.69;78.53;100671.88;5037580;28;20123;-84
2021/01/27 01:18:00;;;;;;;9.45;5.63;;;2.10;99.90;;;2.75;78.17;100670.66;5054636;28;20052;-83
2021/01/27 01:20:27;;;;;;;10.15;6.03;;;2.10;99.90;;;2.80;77.70;100666.97;5040033;28;20116;-83
2021/01/27 01:22:58;;;;;;;15.57;6.63;;;2.10;99.90;;;2.75;78.22;100656.03;5040516;28;20031;-83
2021/01/27 01:25:29;;;;;;;11.27;6.30;;;2.10;99.90;;;2.72;77.65;100651.97;5058581;28;20447;-84
2021/01/27 01:27:56;;;;;;;15.23;6.32;;;2.10;99.90;;;2.77;77.13;100654.59;5058830;28;20369;-84
2021/01/27 01:30:32;;;;;;;10.15;6.07;;;2.10;99.90;;;2.62;77.60;100660.44;5041011;28;20431;-83
2021/01/27 01:33:28;;;;;;;9.40;5.07;;;2.10;99.90;;;2.60;77.77;100648.91;5040933;28;20029;-84
2021/01/27 01:35:54;;;;;;;10.95;5.72;;;2.00;99.90;;;2.65;77.31;100648.78;5040465;28;20071;-84
2021/01/27 01:38:21;;;;;;;11.52;6.05;;;2.00;99.90;;;2.67;77.36;100638.25;5058736;28;20033;-81
2021/01/27 01:41:00;;;;;;;13.23;5.80;;;2.00;99.90;;;2.57;76.44;100633.75;5041185;28;20162;-83
2021/01/27 01:43:39;;;;;;;9.98;5.03;;;2.00;99.90;;;2.57;76.75;100628.25;5036472;28;20035;-83
2021/01/27 01:46:26;;;;;;;11.50;5.68;;;2.00;99.90;;;2.55;76.43;100640.72;5039487;28;20083;-84
2021/01/27 01:49:03;;;;;;;;;;;2.10;99.90;;;2.59;76.27;100636.22;5039814;28;20064;-81
2021/01/27 01:51:41;;;;;;;7.65;4.65;;;2.10;99.90;;;2.50;77.20;100641.66;5022041;28;19909;-85
2021/01/27 01:54:31;;;;;;;10.40;5.10;;;2.00;99.90;;;2.50;77.02;100644.41;5039100;28;20033;-85
2021/01/27 01:57:13;;;;;;;10.73;5.60;;;2.00;99.90;;;2.48;76.52;100641.09;5021019;28;20025;-83
2021/01/27 01:59:54;;;;;;;8.18;5.25;;;2.00;99.90;;;2.48;76.61;100638.34;5021341;28;20025;-84
2021/01/27 02:02:22;;;;;;;11.05;4.95;;;2.00;99.90;;;2.58;76.33;100629.06;5021520;28;20021;-83
2021/01/27 02:05:05;;;;;;;10.32;5.70;;;2.00;99.90;;;2.46;76.60;100632.34;5021622;28;20034;-84
2021/01/27 02:07:31;;;;;;;6.30;4.47;;;2.00;99.90;;;2.53;76.33;100616.22;5021022;28;20025;-85
2021/01/27 02:09:57;;;;;;;9.65;5.05;;;2.00;99.90;;;2.47;76.28;100620.16;5022586;28;20041;-84
2021/01/27 02:13:05;;;;;;;9.38;4.75;;;2.00;99.90;;;2.38;76.43;100627.50;5022861;28;20029;-85
2021/01/27 02:16:09;;;;;;;8.88;4.72;;;2.00;99.90;;;2.46;76.57;100612.22;5024307;28;20029;-83
2021/01/27 02:19:30;;;;;;;10.02;4.88;;;2.00;99.90;;;2.42;76.55;100617.53;5039158;28;20029;-82
2021/01/27 02:22:15;;;;;;;9.32;5.10;;;1.90;99.90;;;2.38;76.83;100605.47;5026732;28;20045;-82
2021/01/27 02:25:39;;;;;;;6.75;4.82;;;1.90;99.90;;;2.33;76.18;100613.84;5038937;28;20079;-83
2021/01/27 02:28:50;;;;;;;9.15;5.25;;;1.90;99.90;;;2.46;75.62;100607.53;5020709;28;20038;-83
2021/01/27 02:31:35;;;;;;;7.72;5.07;;;1.90;99.90;;;2.42;75.53;100600.16;5021082;28;20037;-82
2021/01/27 02:34:10;;;;;;;8.90;5.63;;;1.90;99.90;;;2.40;76.01;100594.97;5021235;28;20381;-81
2021/01/27 02:37:20;;;;;;;12.32;5.68;;;1.90;99.90;;;2.34;75.66;100604.47;5038888;28;20482;-84
2021/01/27 02:39:59;;;;;;;9.48;5.25;;;1.90;99.90;;;2.42;75.76;100598.22;4962248;28;20111;-83
2021/01/27 02:42:42;;;;;;;9.93;6.05;;;1.90;99.90;;;2.27;76.00;100592.19;5035360;28;20042;-84
2021/01/27 02:45:24;;;;;;;9.45;5.10;;;1.90;99.90;;;2.41;75.67;100585.56;5020842;28;20033;-85
2021/01/27 02:48:15;;;;;;;9.73;4.97;;;1.90;99.90;;;2.41;74.73;100580.03;5021140;28;20037;-85
2021/01/27 02:50:53;;;;;;;8.07;5.20;;;1.90;99.90;;;2.37;75.05;100576.28;5022769;28;20030;-83
2021/01/27 02:53:29;;;;;;;9.80;4.95;;;1.80;99.90;;;2.28;75.54;100575.34;5057146;28;20037;-82
2021/01/27 02:56:15;;;;;;;9.55;5.57;;;1.80;99.90;;;2.26;75.37;100577.59;5054073;28;20029;-82
2021/01/27 02:59:01;;;;;;;10.48;5.20;;;1.80;99.90;;;2.36;74.06;100565.56;5042710;28;20616;-81
2021/01/27 03:01:45;;;;;;;;;;;1.80;99.90;;;2.28;74.39;100574.53;5000919;28;20029;-82
2021/01/27 03:04:28;;;;;;;8.48;4.88;;;1.80;99.90;;;2.25;75.23;100567.69;5034506;28;19909;-84
2021/01/27 03:06:57;;;;;;;8.52;5.28;;;1.80;99.90;;;2.25;74.30;100564.91;5037985;28;20037;-84
2021/01/27 03:09:59;;;;;;;9.05;5.10;;;1.80;99.90;;;2.23;74.97;100555.34;5039542;28;20040;-85
2021/01/27 03:12:25;;;;;;;12.32;5.43;;;1.80;99.90;;;2.27;74.39;100557.19;5057554;28;20366;-85
2021/01/27 03:14:51;;;;;;;10.85;5.25;;;1.70;99.90;;;2.31;73.54;100551.88;5040440;28;20025;-82
2021/01/27 03:17:24;;;;;;;9.55;5.68;;;1.80;99.90;;;2.35;73.86;100552.88;5056524;28;20064;-83
2021/01/27 03:20:06;;;;;;;10.13;4.93;;;1.80;99.90;;;2.27;73.58;100550.84;5040334;28;20477;-81
2021/01/27 03:22:45;;;;;;;7.28;4.20;;;1.70;99.90;;;2.31;74.05;100551.88;5039536;28;20211;-82
2021/01/27 03:25:30;;;;;;;8.00;4.60;;;1.80;99.90;;;2.34;73.82;100552.09;5058235;28;20562;-83
2021/01/27 03:28:41;;;;;;;6.72;4.30;;;1.70;99.90;;;2.38;73.59;100547.59;5057781;28;20039;-85
2021/01/27 03:31:07;;;;;;;8.40;4.38;;;1.80;99.90;;;2.41;73.20;100546.97;5057608;28;20029;-84
2021/01/27 03:34:12;;;;;;;6.55;4.43;;;1.80;99.90;;;2.41;73.56;100546.19;5040131;28;20117;-83
2021/01/27 03:37:04;;;;;;;5.78;4.15;;;1.80;99.90;;;2.33;74.34;100544.13;5056705;28;20041;-84
2021/01/27 03:39:39;;;;;;;8.48;4.72;;;1.90;99.90;;;2.37;74.41;100534.94;5057826;28;20025;-83
2021/01/27 03:42:21;;;;;;;8.73;4.78;;;1.80;99.90;;;2.34;74.51;100529.22;5057066;28;20025;-85
2021/01/27 03:45:01;;;;;;;7.63;4.43;;;1.80;99.90;;;2.28;74.27;100522.97;5039122;28;20120;-83
2021/01/27 03:47:42;;;;;;;6.30;4.18;;;1.80;99.90;;;2.37;74.20;100523.91;5056027;28;20029;-84
2021/01/27 03:50:15;;;;;;;8.55;4.90;;;1.80;99.90;;;2.21;74.65;100519.84;5039361;28;20025;-83
2021/01/27 03:53:12;;;;;;;8.25;4.35;;;1.70;99.90;;;2.15;75.60;100512.78;5058159;28;20393;-84
2021/01/27 03:55:57;;;;;;;9.27;4.20;;;1.70;99.90;;;2.18;75.30;100508.59;5041177;28;20033;-82
2021/01/27 03:58:38;;;;;;;7.40;4.20;;;1.70;99.90;;;2.10;75.83;100499.09;5039700;28;20089;-82
2021/01/27 04:01:22;;;;;;;8.75;4.65;;;1.70;99.90;;;2.19;75.55;100497.25;5040281;28;20028;-85
2021/01/27 04:03:53;;;;;;;8.52;4.78;;;1.60;99.90;;;2.16;75.50;100502.56;5039355;28;20037;-85
2021/01/27 04:06:20;;;;;;;6.63;4.38;;;1.60;99.90;;;2.12;76.03;100507.88;5056226;28;20096;-82
2021/01/27 04:08:46;;;;;;;7.65;4.05;;;1.60;99.90;;;2.18;76.33;100505.84;5039338;28;20547;-82
2021/01/27 04:11:13;;;;;;;10.30;4.72;;;1.60;99.90;;;2.07;77.05;100502.47;5040140;28;20071;-84
2021/01/27 04:13:39;;;;;;;5.90;4.15;;;1.60;99.90;;;2.10;76.99;100504.59;5039948;28;20056;-85
2021/01/27 04:16:06;;;;;;;11.93;5.03;;;1.60;99.90;;;2.14;76.76;100497.38;5040238;28;20041;-84
2021/01/27 04:18:32;;;;;;;6.50;4.15;;;1.60;99.90;;;2.05;77.06;100490.94;5061445;28;20076;-83
2021/01/27 04:20:58;;;;;;;7.80;4.00;;;1.60;99.90;;;2.18;77.17;100489.31;5051310;28;20039;-81
2021/01/27 04:23:24;;;;;;;8.55;4.82;;;1.70;99.90;;;2.24;77.10;100477.88;5055170;28;20033;-83
2021/01/27 04:25:50;;;;;;;7.22;4.03;;;1.70;99.90;;;2.19;77.41;100475.22;5055838;28;20021;-82
2021/01/27 04:28:16;;;;;;;7.40;4.15;;;1.70;99.90;;;2.23;77.09;100470.72;5056002;28;20085;-83
2021/01/27 04:30:43;;;;;;;7.70;3.83;;;1.70;99.90;;;2.26;77.65;100472.88;5073624;28;20055;-81
2021/01/27 04:33:11;;;;;;;7.30;3.45;;;1.70;99.90;;;2.28;77.04;100470.63;5056376;28;20059;-82
2021/01/27 04:35:38;;;;;;;6.07;3.60;;;1.70;99.90;;;2.34;77.29;100455.63;5071391;28;20090;-84
2021/01/27 04:38:06;;;;;;;6.57;3.90;;;1.80;99.90;;;2.25;77.55;100442.88;5042647;28;20047;-83
2021/01/27 04:40:45;;;;;;;6.47;3.45;;;1.80;99.90;;;2.25;77.61;100440.13;5059009;28;20442;-82
2021/01/27 04:43:28;;;;;;;6.13;4.00;;;1.80;99.90;;;2.29;78.04;100439.19;5041410;28;20036;-82
2021/01/27 04:46:56;;;;;;;6.22;4.10;;;1.80;99.90;;;2.24;77.82;100439.31;5041936;28;20384;-83
2021/01/27 04:49:39;;;;;;;8.73;4.53;;;1.80;99.90;;;2.42;77.40;100434.78;5014783;28;20071;-82
2021/01/27 04:52:35;;;;;;;6.40;3.78;;;1.90;99.90;;;2.23;77.43;100420.31;5040600;28;20025;-82
2021/01/27 04:55:15;;;;;;;7.65;3.78;;;1.80;99.90;;;2.36;77.67;100417.53;5045152;28;20453;-84
2021/01/27 04:58:19;;;;;;;7.50;3.92;;;1.80;99.90;;;2.31;78.10;100411.34;5063123;28;20025;-83
2021/01/27 05:02:42;;;;;;;8.13;4.13;;;1.90;99.90;;;2.34;78.33;100406.03;5056906;28;20044;-83
2021/01/27 05:05:25;;;;;;;6.57;3.90;;;1.80;99.90;;;2.30;78.96;100398.66;4950815;28;20046;-82
2021/01/27 05:08:12;;;;;;;8.77;3.75;;;1.80;99.90;;;2.26;79.06;100400.41;5052977;28;20037;-82
2021/01/27 05:10:53;;;;;;;6.57;3.78;;;1.80;99.90;;;2.29;78.62;100381.31;5077638;28;20036;-80
2021/01/27 05:13:51;;;;;;;7.70;3.67;;;1.80;99.90;;;2.32;79.26;100366.09;5046864;28;20033;-82
2021/01/27 05:16:27;;;;;;;9.02;3.78;;;1.80;99.90;;;2.22;78.92;100366.31;5053678;28;20051;-83
2021/01/27 05:19:05;;;;;;;7.65;4.63;;;1.80;99.90;;;2.33;79.64;100359.47;5031029;28;20094;-82
2021/01/27 05:21:50;;;;;;;6.03;3.33;;;1.80;99.90;;;2.34;79.45;100364.69;5037895;28;20026;-82
2021/01/27 05:24:18;;;;;;;5.75;3.40;;;1.80;99.90;;;2.29;80.01;100355.69;5039327;28;20033;-82
2021/01/27 05:27:25;;;;;;;5.93;3.78;;;1.80;99.90;;;2.34;79.69;100356.41;5021996;28;20076;-82
2021/01/27 05:30:25;;;;;;;6.43;3.28;;;1.90;99.90;;;2.26;79.94;100334.28;5039916;28;20384;-84
2021/01/27 05:32:56;;;;;;;6.30;3.45;;;1.90;99.90;;;2.34;79.92;100325.28;4998455;28;20038;-84
2021/01/27 05:35:43;;;;;;;4.90;3.38;;;1.80;99.90;;;2.32;80.19;100327.50;5045249;28;20033;-83
2021/01/27 05:38:31;;;;;;;5.97;3.83;;;1.90;99.90;;;2.34;80.37;100323.34;5035285;28;20113;-81
2021/01/27 05:41:08;;;;;;;9.07;3.65;;;1.90;99.90;;;2.28;80.54;100312.75;5054784;28;20025;-81
2021/01/27 05:43:37;;;;;;;3.83;2.70;;;1.80;99.90;;;2.30;80.50;100293.94;5049515;28;20018;-82
2021/01/27 05:46:34;;;;;;;4.28;3.00;;;1.90;99.90;;;2.31;80.37;100301.09;5042160;28;20025;-83
2021/01/27 05:49:03;;;;;;;5.85;3.30;;;1.90;99.90;;;2.32;80.65;100291.69;5041735;28;20036;-82
2021/01/27 05:51:37;;;;;;;5.85;3.38;;;1.90;99.90;;;2.30;80.80;100294.78;5042193;28;20063;-84
2021/01/27 05:54:27;;;;;;;5.32;3.05;;;1.90;99.90;;;2.43;80.09;100285.63;5060604;28;20401;-82
2021/01/27 05:56:54;;;;;;;5.13;2.70;;;1.90;99.90;;;2.46;79.47;100284.19;5041112;28;20050;-83
2021/01/27 05:59:29;;;;;;;4.38;2.63;;;1.90;99.90;;;2.37;80.21;100286.88;5041065;28;20049;-84
2021/01/27 06:02:06;;;;;;;5.22;2.40;;;2.00;99.90;;;2.39;79.94;100270.03;5040921;28;20036;-83
2021/01/27 06:04:36;;;;;;;4.85;2.70;;;2.00;99.90;;;2.47;79.53;100266.53;5058758;28;20025;-84
2021/01/27 06:07:29;;;;;;;5.25;2.67;;;2.10;99.90;;;2.41;79.36;100271.34;5037224;28;20033;-84
2021/01/27 06:09:55;;;;;;;3.55;2.40;;;2.10;99.90;;;2.41;79.52;100265.81;4999892;28;20064;-82
2021/01/27 06:12:21;;;;;;;4.22;2.78;;;2.10;99.90;;;2.55;79.66;100272.09;5001460;28;20033;-83
2021/01/27 06:15:29;;;;;;;4.43;2.95;;;2.10;99.90;;;2.54;79.34;100277.91;5018128;28;20030;-85
2021/01/27 06:17:55;;;;;;;3.65;2.20;;;2.10;99.90;;;2.57;79.06;100264.31;5001032;28;20026;-84
2021/01/27 06:20:36;;;;;;;4.60;2.58;;;2.10;99.90;;;2.53;79.48;100266.09;5024016;28;20044;-84
2021/01/27 06:24:05;;;;;;;3.25;2.33;;;2.10;99.90;;;2.50;79.50;100274.16;5050341;28;20029;-85
2021/01/27 06:27:03;;;;;;;3.90;2.47;;;2.10;99.90;;;2.50;79.75;100249.38;4998862;28;20037;-84
2021/01/27 06:30:10;;;;;;;5.35;2.65;;;2.10;99.90;;;2.58;79.74;100257.69;5057841;28;20036;-84
2021/01/27 06:33:00;;;;;;;5.57;2.85;;;2.10;99.90;;;2.59;79.78;100241.97;5019922;28;20468;-85
2021/01/27 06:35:59;;;;;;;4.20;2.47;;;2.10;99.90;;;2.43;80.26;100243.47;5019643;28;20056;-83
2021/01/27 06:38:53;;;;;;;4.68;2.50;;;2.20;99.90;;;2.51;80.01;100234.44;5037196;28;20091;-83
2021/01/27 06:42:14;;;;;;;4.40;2.88;;;2.10;99.90;;;2.59;79.63;100237.25;5017232;28;20294;-84
2021/01/27 06:45:32;;;;;;;3.67;2.47;;;2.20;99.90;;;2.52;79.82;100242.41;5036278;28;20034;-83
2021/01/27 06:48:19;;;;;;;4.93;2.58;;;2.20;99.90;;;2.57;80.06;100247.78;5035417;28;20116;-83
2021/01/27 06:51:50;;;;;;;6.10;2.60;;;2.20;99.90;;;2.67;79.63;100247.50;5040175;28;20024;-83
2021/01/27 06:55:11;;;;;;;5.85;2.25;;;2.20;99.90;;;2.57;79.78;100242.25;4998220;28;20053;-84
2021/01/27 06:58:21;;;;;;;2.80;2.00;;;2.20;99.90;;;2.55;80.53;100232.69;4996838;28;20041;-84
2021/01/27 07:01:35;;;;;;;4.80;2.13;;;2.20;99.90;;;2.67;79.80;100230.16;4998622;28;20034;-84
2021/01/27 07:04:50;;;;;;;6.40;2.15;;;2.20;99.90;;;2.55;80.45;100229.91;5016936;28;20060;-85
2021/01/27 07:07:40;;;;;;;3.40;2.25;;;2.20;99.90;;;2.61;80.01;100218.44;4988473;28;20064;-84
2021/01/27 07:11:24;;;;;;;4.13;2.20;;;2.20;99.90;;;2.48;80.68;100215.75;5016766;28;20152;-83
2021/01/27 07:14:30;;;;;;;4.28;2.58;;;2.20;99.90;;;2.57;80.11;100211.13;4956074;29;20043;-84
2021/01/27 07:17:43;;;;;;;5.22;2.30;;;2.20;99.90;;;2.52;80.29;100201.06;5031149;28;20442;-85
2021/01/27 07:20:22;;;;;;;4.32;1.88;;;2.20;99.90;;;2.60;79.90;100205.00;5003154;28;20037;-83
2021/01/27 07:23:06;;;;;;;4.60;2.38;;;2.20;99.90;;;2.55;80.31;100196.84;4999587;28;20474;-82
2021/01/27 07:25:58;;;;;;;5.93;2.30;;;2.20;99.90;;;2.55;80.08;100199.59;5006009;28;20044;-81
2021/01/27 07:29:05;;;;;;;3.63;2.15;;;2.20;99.90;;;2.60;79.90;100197.50;5016149;28;20033;-83
2021/01/27 07:31:54;;;;;;;4.55;2.50;;;2.20;99.90;;;2.51;80.52;100193.91;4999074;28;20048;-82
2021/01/27 07:34:53;;;;;;;4.45;2.58;;;2.20;99.90;;;2.56;80.24;100192.97;5016221;28;20165;-81
2021/01/27 07:37:33;;;;;;;6.60;2.97;;;2.20;99.90;;;2.55;80.75;100199.59;5015991;28;20102;-83
2021/01/27 07:40:14;;;;;;;6.15;2.72;;;2.20;99.90;;;2.57;80.66;100198.16;5017464;28;20026;-82
2021/01/27 07:43:23;;;;;;;5.50;2.67;;;2.20;99.90;;;2.71;79.96;100202.75;4999734;28;20033;-82
2021/01/27 07:45:55;;;;;;;7.10;2.67;;;2.20;99.90;;;2.63;80.14;100202.41;4997707;28;20037;-83
2021/01/27 07:48:41;;;;;;;5.30;2.40;;;2.20;99.90;;;2.60;80.79;100194.75;5021053;28;20052;-81
2021/01/27 07:51:18;;;;;;;;;;;2.30;99.90;;;2.72;80.76;100193.38;5000682;28;20029;-82
2021/01/27 07:54:21;;;;;;;3.40;2.55;;;2.20;99.90;;;2.42;82.96;100197.72;5014484;28;19966;-83
2021/01/27 07:57:53;;;;;;;4.75;2.40;;;2.10;99.90;;;2.24;84.64;100190.50;5038357;28;20092;-82
2021/01/27 08:00:31;;;;;;;7.43;3.17;;;2.00;99.90;;;2.32;85.93;100206.25;5013744;28;20064;-84
2021/01/27 08:03:26;;;;;;;4.32;2.95;;;1.90;99.90;;;2.22;86.82;100196.31;5018390;28;20040;-84
2021/01/27 08:06:07;;;;;;;4.93;2.83;;;1.80;99.90;;;2.09;88.04;100191.66;5016590;28;20537;-82
2021/01/27 08:08:53;;;;;;;4.20;3.03;;;1.70;99.90;;;2.06;88.42;100193.13;5015693;28;20133;-84
2021/01/27 08:11:33;;;;;;;4.68;3.30;;;1.60;99.90;;;2.04;89.16;100197.31;5015508;28;20030;-85
2021/01/27 08:14:00;;;;;;;4.45;3.17;;;1.60;99.90;;;1.98;89.39;100184.81;5015003;28;20034;-84
2021/01/27 08:16:47;;;;;;;4.90;3.28;;;1.50;99.90;;;1.92;89.57;100188.81;5015203;28;20022;-84
2021/01/27 08:19:13;;;;;;;5.57;3.38;;;1.60;99.90;;;2.13;89.01;100198.19;5016238;28;20026;-83
2021/01/27 08:21:57;;;;;;;5.75;3.25;;;1.60;99.90;;;1.96;89.11;100198.88;5044463;28;20036;-84
2021/01/27 08:24:35;;;;;;;6.70;3.85;;;1.60;99.90;;;2.03;89.11;100202.00;5055543;28;20040;-84
2021/01/27 08:27:10;;;;;;;6.57;3.35;;;1.70;99.90;;;2.15;88.88;100197.91;5037245;28;20037;-84
2021/01/27 08:30:02;;;;;;;6.90;3.72;;;1.70;99.90;;;2.19;88.80;100199.69;5039064;28;20048;-84
2021/01/27 08:32:38;;;;;;;4.95;3.13;;;1.80;99.90;;;2.24;88.89;100196.81;5049091;28;20098;-83
2021/01/27 08:35:36;;;;;;;4.30;3.03;;;1.80;99.90;;;2.21;88.67;100211.22;5041168;28;20033;-82
2021/01/27 08:38:29;;;;;;;4.72;3.33;;;1.80;99.90;;;2.21;89.07;100204.91;5042137;28;20039;-81
2021/01/27 08:40:56;;;;;;;5.32;3.08;;;1.80;99.90;;;2.40;88.82;100194.50;5041362;28;20040;-82
2021/01/27 08:43:36;;;;;;;5.32;3.08;;;1.80;99.90;;;2.18;89.80;100184.31;5040935;28;20052;-82
2021/01/27 08:46:29;;;;;;;6.07;3.65;;;1.80;99.90;;;2.15;89.40;100195.13;5041280;28;20101;-81
2021/01/27 08:48:55;;;;;;;10.95;9.95;;;1.80;99.90;;;2.22;89.96;100179.78;5037939;28;20029;-81
2021/01/27 08:51:47;;;;;;;5.10;3.00;;;1.80;99.90;;;2.13;89.92;100178.91;5041785;28;20040;-83
2021/01/27 08:54:35;;;;;;;5.00;4.05;;;1.80;99.90;;;2.22;89.84;100167.94;5042908;28;20033;-82
2021/01/27 08:57:31;;;;;;;5.97;3.15;;;1.80;99.90;;;2.39;88.98;100159.78;5061722;28;20087;-83
2021/01/27 09:00:18;;;;;;;5.10;3.25;;;1.80;99.90;;;2.27;90.12;100160.38;5042507;28;20064;-83
2021/01/27 09:02:59;;;;;;;4.40;2.88;;;1.90;99.90;;;2.39;89.63;100152.34;5042383;28;20044;-82
2021/01/27 09:05:28;;;;;;;5.18;3.15;;;2.00;99.90;;;2.47;89.24;100157.06;5060429;28;20052;-83
2021/01/27 09:07:59;;;;;;;3.42;2.72;;;2.00;99.90;;;2.54;89.01;100146.41;5059784;28;20036;-83
2021/01/27 09:10:51;;;;;;;4.25;2.85;;;2.00;99.90;;;2.58;88.36;100155.69;5060015;28;20024;-83
2021/01/27 09:13:42;;;;;;;3.50;2.50;;;2.10;99.90;;;2.73;87.50;100150.88;5036434;28;20029;-84
2021/01/27 09:16:26;;;;;;;5.55;2.63;;;2.20;99.90;;;2.71;88.01;100142.09;5040975;28;20033;-85
2021/01/27 09:19:09;;;;;;;5.10;2.40;;;2.20;99.90;;;2.70;88.21;100140.50;5042842;28;20048;-82
2021/01/27 09:21:36;;;;;;;3.15;2.35;;;2.20;99.90;;;2.74;87.72;100149.72;5032612;28;20032;-83
2021/01/27 09:24:11;;;;;;;5.00;2.50;;;2.20;99.90;;;2.74;88.04;100147.78;5056912;28;20064;-83
2021/01/27 09:26:50;;;;;;;4.07;2.53;;;2.20;99.90;;;2.76;87.13;100148.28;5060224;28;20454;-85
2021/01/27 09:29:22;;;;;;;3.28;2.33;;;2.20;99.90;;;2.70;87.74;100144.03;5053604;28;20477;-83
2021/01/27 09:31:49;;;;;;;3.42;2.20;;;2.20;99.90;;;2.79;87.53;100155.13;5041118;28;20033;-85
2021/01/27 09:34:31;;;;;;;2.50;2.15;;;2.20;99.90;;;2.77;87.10;100152.66;5054749;28;20056;-85
2021/01/27 09:37:15;;;;;;;3.08;1.92;;;2.30;99.90;;;2.65;87.11;100158.78;5030017;28;20021;-84
2021/01/27 09:40:05;;;;;;;4.50;2.10;;;2.20;99.90;;;2.64;87.82;100173.69;5047395;28;20021;-82
2021/01/27 09:42:31;;;;;;;2.90;2.08;;;2.20;99.90;;;2.60;87.52;100174.66;5027065;28;20036;-82
2021/01/27 09:45:26;;;;;;;2.72;1.77;;;2.20;99.90;;;2.64;87.48;100159.91;5058503;28;20040;-82
2021/01/27 09:47:53;;;;;;;4.57;1.85;;;2.20;99.90;;;2.65;87.55;100157.97;5039613;28;20500;-82
2021/01/27 09:50:20;;;;;;;4.13;2.25;;;2.20;99.90;;;2.79;87.22;100171.66;5058766;28;20035;-82
2021/01/27 09:52:57;;;;;;;4.75;2.22;;;2.30;99.90;;;2.72;87.29;100166.63;5028913;28;20412;-84
2021/01/27 09:55:27;;;;;;;3.58;2.03;;;2.30;99.90;;;2.83;86.56;100184.50;5018114;28;20038;-84
2021/01/27 09:57:56;;;;;;;2.22;1.67;;;2.30;99.90;;;2.84;87.20;100188.06;4999770;28;20503;-84
2021/01/27 10:00:38;;;;;;;2.50;1.77;;;2.30;99.90;;;2.83;87.24;100176.22;5018243;28;20497;-84
2021/01/27 10:03:25;;;;;;;3.65;1.85;;;2.40;99.90;;;2.85;86.73;100192.47;5023653;28;20024;-83
2021/01/27 10:05:53;;;;;;;2.55;2.00;;;2.40;99.90;;;2.93;86.71;100189.72;5002609;28;20457;-84
2021/01/27 10:08:32;;;;;;;3.47;2.30;;;2.40;99.90;;;2.94;86.78;100194.13;5020390;28;20035;-83
2021/01/27 10:11:20;;;;;;;3.28;2.17;;;2.40;99.90;;;2.90;87.10;100198.63;5019213;28;20041;-82
2021/01/27 10:13:47;;;;;;;4.60;1.95;;;2.50;99.90;;;2.99;86.94;100202.25;5018893;28;20041;-84
2021/01/27 10:16:15;;;;;;;2.65;1.90;;;2.50;99.90;;;2.93;87.93;100188.91;5018836;28;20149;-84
2021/01/27 10:18:45;;;;;;;3.40;2.05;;;2.50;99.90;;;2.94;88.56;100176.75;5019445;28;20083;-84
2021/01/27 10:21:16;;;;;;;2.78;1.95;;;2.50;99.90;;;3.03;89.05;100174.84;5033702;28;20041;-82
2021/01/27 10:23:48;;;;;;;8.10;2.60;;;2.50;99.90;;;3.04;89.75;100180.03;5020299;28;20034;-83
2021/01/27 10:26:29;;;;;;;4.15;2.20;;;2.60;99.90;;;3.16;89.17;100177.47;5037365;28;20061;-80
2021/01/27 10:29:16;;;;;;;4.15;2.17;;;2.60;99.90;;;3.13;90.24;100186.41;5050436;28;20022;-82
2021/01/27 10:31:56;;;;;;;3.03;2.17;;;2.60;99.90;;;3.15;89.86;100184.13;5063884;28;20037;-81
2021/01/27 10:34:45;;;;;;;5.70;3.05;;;2.60;99.90;;;2.95;91.65;100179.22;5027538;28;20014;-81
2021/01/27 10:37:40;;;;;;;4.22;2.33;;;2.60;99.90;;;3.14;91.63;100184.47;5058756;28;20035;-80
2021/01/27 10:40:20;;;;;;;5.30;2.67;;;2.60;99.90;;;2.99;92.29;100184.88;5057870;28;20028;-81
2021/01/27 10:42:56;;;;;;;4.45;2.85;;;2.60;99.90;;;2.99;92.55;100188.44;5055844;28;20037;-80
2021/01/27 10:45:38;;;;;;;5.10;2.83;;;2.60;99.90;;;3.05;92.20;100186.38;5040268;28;20096;-81
2021/01/27 10:48:10;;;;;;;3.53;2.40;;;2.60;99.90;;;3.06;91.77;100188.81;5040684;28;20521;-82
2021/01/27 10:50:44;;;;;;;3.67;2.65;;;2.50;99.90;;;3.11;92.40;100185.09;5057732;28;20420;-82
2021/01/27 10:53:15;;;;;;;3.03;2.60;;;2.50;99.90;;;3.11;92.56;100185.88;5041215;28;20393;-82
2021/01/27 10:55:53;;;;;;;4.57;2.58;;;2.50;99.90;;;3.15;91.73;100181.38;5054802;28;20025;-82
2021/01/27 10:58:21;;;;;;;6.13;2.58;;;2.50;99.90;;;3.22;90.83;100171.78;5026842;28;20027;-82
2021/01/27 11:00:49;;;;;;;4.05;2.67;;;2.50;99.90;;;3.14;91.68;100179.75;5031000;28;20472;-82
2021/01/27 11:03:17;;;;;;;3.30;2.50;;;2.50;99.90;;;3.05;92.21;100176.13;5020029;28;20616;-82
2021/01/27 11:05:44;;;;;;;7.78;3.50;;;2.50;99.90;;;3.01;93.46;100172.41;5018897;28;20469;-82
2021/01/27 11:08:27;;;;;;;4.25;3.15;;;2.50;99.90;;;3.05;93.64;100169.84;5019554;28;20025;-81
2021/01/27 11:10:56;;;;;;;3.28;2.97;;;2.50;99.90;;;3.18;92.78;100168.88;5036085;28;20500;-81
2021/01/27 11:13:22;;;;;;;5.95;2.72;;;2.50;99.90;;;3.26;92.75;100179.13;5020062;28;20033;-81
2021/01/27 11:15:49;;;;;;;3.45;2.65;;;2.60;99.90;;;3.24;92.31;100170.38;5021026;28;20136;-80
2021/01/27 11:18:18;;;;;;;3.58;2.67;;;2.70;99.90;;;3.29;93.22;100169.38;5020598;28;20033;-82
2021/01/27 11:20:51;;;;;;;3.90;2.80;;;2.70;99.90;;;3.24;92.40;100169.56;5036677;28;20025;-82
2021/01/27 11:23:17;;;;;;;4.13;2.90;;;2.70;99.90;;;3.32;92.79;100169.56;5038229;28;20040;-82
2021/01/27 11:25:43;;;;;;;3.72;2.47;;;2.80;99.90;;;3.52;92.03;100160.66;5033521;28;20044;-81